sensor_id;sensor_type;location;lat;lon;timestamp;P1;durP1;ratioP1;P2;durP2;ratioP2
12788;SDS011;6458;42.710;23.192;2023-05-19T00:01:13;8.23;;;7.10;;
12788;SDS011;6458;42.710;23.192;2023-05-19T00:03:48;8.27;;;7.43;;
12788;SDS011;6458;42.710;23.192;2023-05-19T00:06:18;8.40;;;7.30;;
12788;SDS011;6458;42.710;23.192;2023-05-19T00:08:47;6.83;;;6.17;;
12788;SDS011;6458;42.710;23.192;2023-05-19T00:11:14;7.60;;;6.23;;
12788;SDS011;6458;42.710;23.192;2023-05-19T00:13:47;7.27;;;6.57;;
12788;SDS011;6458;42.710;23.192;2023-05-19T00:16:15;7.10;;;6.40;;
12788;SDS011;6458;42.710;23.192;2023-05-19T00:18:41;7.27;;;6.57;;
12788;SDS011;6458;42.710;23.192;2023-05-19T00:21:08;6.43;;;5.80;;
12788;SDS011;6458;42.710;23.192;2023-05-19T00:23:36;6.60;;;6.07;;
12788;SDS011;6458;42.710;23.192;2023-05-19T00:26:03;6.00;;;5.50;;
12788;SDS011;6458;42.710;23.192;2023-05-19T00:28:30;5.70;;;5.23;;
12788;SDS011;6458;42.710;23.192;2023-05-19T00:30:56;6.10;;;5.50;;
12788;SDS011;6458;42.710;23.192;2023-05-19T00:33:23;6.13;;;5.63;;
12788;SDS011;6458;42.710;23.192;2023-05-19T00:35:50;7.00;;;6.30;;
12788;SDS011;6458;42.710;23.192;2023-05-19T00:38:16;6.13;;;5.63;;
12788;SDS011;6458;42.710;23.192;2023-05-19T00:40:44;5.80;;;5.40;;
12788;SDS011;6458;42.710;23.192;2023-05-19T00:43:11;6.93;;;5.97;;
12788;SDS011;6458;42.710;23.192;2023-05-19T00:45:38;8.37;;;6.53;;
12788;SDS011;6458;42.710;23.192;2023-05-19T00:48:05;6.37;;;5.53;;
12788;SDS011;6458;42.710;23.192;2023-05-19T00:50:31;6.67;;;6.17;;
12788;SDS011;6458;42.710;23.192;2023-05-19T00:52:58;5.83;;;5.30;;
12788;SDS011;6458;42.710;23.192;2023-05-19T00:55:25;6.47;;;5.87;;
12788;SDS011;6458;42.710;23.192;2023-05-19T00:57:55;6.43;;;5.83;;
12788;SDS011;6458;42.710;23.192;2023-05-19T01:00:22;6.93;;;6.23;;
12788;SDS011;6458;42.710;23.192;2023-05-19T01:02:48;6.13;;;5.60;;
12788;SDS011;6458;42.710;23.192;2023-05-19T01:05:15;7.50;;;6.20;;
12788;SDS011;6458;42.710;23.192;2023-05-19T01:07:42;7.67;;;7.03;;
12788;SDS011;6458;42.710;23.192;2023-05-19T01:10:11;8.23;;;6.40;;
12788;SDS011;6458;42.710;23.192;2023-05-19T01:12:38;6.50;;;5.73;;
12788;SDS011;6458;42.710;23.192;2023-05-19T01:15:07;7.37;;;6.20;;
12788;SDS011;6458;42.710;23.192;2023-05-19T01:17:35;6.67;;;6.07;;
12788;SDS011;6458;42.710;23.192;2023-05-19T01:20:05;6.70;;;6.10;;
12788;SDS011;6458;42.710;23.192;2023-05-19T01:22:47;7.77;;;6.80;;
12788;SDS011;6458;42.710;23.192;2023-05-19T01:30:43;7.27;;;6.53;;
12788;SDS011;6458;42.710;23.192;2023-05-19T01:33:11;6.83;;;6.23;;
12788;SDS011;6458;42.710;23.192;2023-05-19T01:35:39;6.77;;;6.07;;
12788;SDS011;6458;42.710;23.192;2023-05-19T01:38:07;10.27;;;6.97;;
12788;SDS011;6458;42.710;23.192;2023-05-19T01:40:33;6.90;;;6.30;;
12788;SDS011;6458;42.710;23.192;2023-05-19T01:43:00;6.70;;;5.33;;
12788;SDS011;6458;42.710;23.192;2023-05-19T01:45:28;6.57;;;5.77;;
12788;SDS011;6458;42.710;23.192;2023-05-19T01:47:57;7.37;;;5.97;;
12788;SDS011;6458;42.710;23.192;2023-05-19T01:50:24;7.77;;;6.23;;
12788;SDS011;6458;42.710;23.192;2023-05-19T01:52:51;7.53;;;6.30;;
12788;SDS011;6458;42.710;23.192;2023-05-19T01:55:18;10.63;;;7.93;;
12788;SDS011;6458;42.710;23.192;2023-05-19T01:57:46;7.80;;;6.77;;
12788;SDS011;6458;42.710;23.192;2023-05-19T02:00:17;7.63;;;6.50;;
12788;SDS011;6458;42.710;23.192;2023-05-19T02:02:50;7.83;;;6.90;;
12788;SDS011;6458;42.710;23.192;2023-05-19T02:05:22;8.40;;;7.60;;
12788;SDS011;6458;42.710;23.192;2023-05-19T02:07:55;10.03;;;7.53;;
12788;SDS011;6458;42.710;23.192;2023-05-19T02:10:25;10.37;;;7.80;;
12788;SDS011;6458;42.710;23.192;2023-05-19T02:12:54;9.57;;;7.53;;
12788;SDS011;6458;42.710;23.192;2023-05-19T02:15:24;8.70;;;7.40;;
12788;SDS011;6458;42.710;23.192;2023-05-19T02:17:51;9.10;;;7.20;;
12788;SDS011;6458;42.710;23.192;2023-05-19T02:20:18;13.07;;;8.10;;
12788;SDS011;6458;42.710;23.192;2023-05-19T02:22:47;13.70;;;8.40;;
12788;SDS011;6458;42.710;23.192;2023-05-19T02:25:14;9.77;;;8.17;;
12788;SDS011;6458;42.710;23.192;2023-05-19T02:27:41;12.47;;;8.97;;
12788;SDS011;6458;42.710;23.192;2023-05-19T02:30:08;9.60;;;7.77;;
12788;SDS011;6458;42.710;23.192;2023-05-19T02:32:35;13.13;;;7.90;;
12788;SDS011;6458;42.710;23.192;2023-05-19T02:35:01;14.00;;;8.77;;
12788;SDS011;6458;42.710;23.192;2023-05-19T02:37:29;9.83;;;8.23;;
12788;SDS011;6458;42.710;23.192;2023-05-19T02:39:58;10.53;;;8.53;;
12788;SDS011;6458;42.710;23.192;2023-05-19T02:42:24;12.03;;;8.40;;
12788;SDS011;6458;42.710;23.192;2023-05-19T02:44:52;12.93;;;8.97;;
12788;SDS011;6458;42.710;23.192;2023-05-19T02:47:19;10.93;;;8.90;;
12788;SDS011;6458;42.710;23.192;2023-05-19T02:49:46;10.37;;;8.67;;
12788;SDS011;6458;42.710;23.192;2023-05-19T02:52:12;10.37;;;7.90;;
12788;SDS011;6458;42.710;23.192;2023-05-19T02:54:39;10.77;;;8.70;;
12788;SDS011;6458;42.710;23.192;2023-05-19T02:57:07;12.63;;;9.50;;
12788;SDS011;6458;42.710;23.192;2023-05-19T02:59:35;12.67;;;9.70;;
12788;SDS011;6458;42.710;23.192;2023-05-19T03:02:01;16.13;;;9.20;;
12788;SDS011;6458;42.710;23.192;2023-05-19T03:04:28;11.93;;;9.63;;
12788;SDS011;6458;42.710;23.192;2023-05-19T03:06:55;13.17;;;9.53;;
12788;SDS011;6458;42.710;23.192;2023-05-19T03:09:22;11.60;;;9.73;;
12788;SDS011;6458;42.710;23.192;2023-05-19T03:11:49;15.40;;;10.13;;
12788;SDS011;6458;42.710;23.192;2023-05-19T03:14:17;12.30;;;10.20;;
12788;SDS011;6458;42.710;23.192;2023-05-19T03:16:47;10.33;;;9.23;;
12788;SDS011;6458;42.710;23.192;2023-05-19T03:19:14;12.50;;;9.37;;
12788;SDS011;6458;42.710;23.192;2023-05-19T03:21:42;9.90;;;8.90;;
12788;SDS011;6458;42.710;23.192;2023-05-19T03:24:08;10.93;;;9.83;;
12788;SDS011;6458;42.710;23.192;2023-05-19T03:26:35;14.73;;;9.50;;
12788;SDS011;6458;42.710;23.192;2023-05-19T03:29:02;11.47;;;9.40;;
12788;SDS011;6458;42.710;23.192;2023-05-19T03:31:30;18.43;;;10.57;;
12788;SDS011;6458;42.710;23.192;2023-05-19T03:33:56;9.10;;;8.10;;
12788;SDS011;6458;42.710;23.192;2023-05-19T03:36:23;11.00;;;9.57;;
12788;SDS011;6458;42.710;23.192;2023-05-19T03:38:50;11.97;;;9.17;;
12788;SDS011;6458;42.710;23.192;2023-05-19T03:41:17;9.17;;;8.27;;
12788;SDS011;6458;42.710;23.192;2023-05-19T03:43:43;15.07;;;8.20;;
12788;SDS011;6458;42.710;23.192;2023-05-19T03:46:10;10.47;;;8.67;;
12788;SDS011;6458;42.710;23.192;2023-05-19T03:48:38;9.30;;;8.40;;
12788;SDS011;6458;42.710;23.192;2023-05-19T03:51:05;9.00;;;8.13;;
12788;SDS011;6458;42.710;23.192;2023-05-19T03:53:33;8.40;;;7.63;;
12788;SDS011;6458;42.710;23.192;2023-05-19T03:55:59;8.53;;;7.73;;
12788;SDS011;6458;42.710;23.192;2023-05-19T03:58:26;8.90;;;8.00;;
12788;SDS011;6458;42.710;23.192;2023-05-19T04:00:54;8.70;;;7.90;;
12788;SDS011;6458;42.710;23.192;2023-05-19T04:03:20;10.33;;;9.30;;
12788;SDS011;6458;42.710;23.192;2023-05-19T04:05:49;9.70;;;8.70;;
12788;SDS011;6458;42.710;23.192;2023-05-19T04:08:15;10.73;;;9.63;;
12788;SDS011;6458;42.710;23.192;2023-05-19T04:10:42;10.33;;;9.30;;
12788;SDS011;6458;42.710;23.192;2023-05-19T04:13:09;10.33;;;8.73;;
12788;SDS011;6458;42.710;23.192;2023-05-19T04:15:35;12.07;;;9.67;;
12788;SDS011;6458;42.710;23.192;2023-05-19T04:18:02;11.80;;;9.53;;
12788;SDS011;6458;42.710;23.192;2023-05-19T04:20:29;8.90;;;8.07;;
12788;SDS011;6458;42.710;23.192;2023-05-19T04:22:57;8.23;;;7.43;;
12788;SDS011;6458;42.710;23.192;2023-05-19T04:25:24;7.93;;;7.23;;
12788;SDS011;6458;42.710;23.192;2023-05-19T04:27:52;8.10;;;7.40;;
12788;SDS011;6458;42.710;23.192;2023-05-19T04:30:21;8.10;;;7.40;;
12788;SDS011;6458;42.710;23.192;2023-05-19T04:32:48;9.07;;;8.03;;
12788;SDS011;6458;42.710;23.192;2023-05-19T04:35:15;10.10;;;7.60;;
12788;SDS011;6458;42.710;23.192;2023-05-19T04:37:43;8.00;;;7.23;;
12788;SDS011;6458;42.710;23.192;2023-05-19T04:40:12;8.20;;;7.50;;
12788;SDS011;6458;42.710;23.192;2023-05-19T04:42:40;8.10;;;7.40;;
12788;SDS011;6458;42.710;23.192;2023-05-19T04:45:10;8.23;;;7.43;;
12788;SDS011;6458;42.710;23.192;2023-05-19T04:47:38;9.27;;;8.47;;
12788;SDS011;6458;42.710;23.192;2023-05-19T04:50:06;8.63;;;7.87;;
12788;SDS011;6458;42.710;23.192;2023-05-19T04:52:34;8.97;;;8.17;;
12788;SDS011;6458;42.710;23.192;2023-05-19T04:55:01;9.23;;;7.87;;
12788;SDS011;6458;42.710;23.192;2023-05-19T04:57:30;8.97;;;8.17;;
12788;SDS011;6458;42.710;23.192;2023-05-19T04:59:56;8.53;;;7.83;;
12788;SDS011;6458;42.710;23.192;2023-05-19T05:02:24;8.67;;;7.87;;
12788;SDS011;6458;42.710;23.192;2023-05-19T05:04:51;9.33;;;8.53;;
12788;SDS011;6458;42.710;23.192;2023-05-19T05:07:18;8.63;;;7.93;;
12788;SDS011;6458;42.710;23.192;2023-05-19T05:09:45;9.00;;;8.20;;
12788;SDS011;6458;42.710;23.192;2023-05-19T05:12:13;7.80;;;7.20;;
12788;SDS011;6458;42.710;23.192;2023-05-19T05:14:41;8.07;;;7.27;;
12788;SDS011;6458;42.710;23.192;2023-05-19T05:17:09;8.13;;;7.43;;
12788;SDS011;6458;42.710;23.192;2023-05-19T05:19:36;9.73;;;8.93;;
12788;SDS011;6458;42.710;23.192;2023-05-19T05:22:03;8.67;;;7.97;;
12788;SDS011;6458;42.710;23.192;2023-05-19T05:24:32;9.50;;;8.70;;
12788;SDS011;6458;42.710;23.192;2023-05-19T05:26:59;7.37;;;6.87;;
12788;SDS011;6458;42.710;23.192;2023-05-19T05:29:26;8.00;;;7.40;;
12788;SDS011;6458;42.710;23.192;2023-05-19T05:31:54;7.90;;;7.30;;
12788;SDS011;6458;42.710;23.192;2023-05-19T05:34:21;8.13;;;7.40;;
12788;SDS011;6458;42.710;23.192;2023-05-19T05:36:48;7.77;;;7.13;;
12788;SDS011;6458;42.710;23.192;2023-05-19T05:39:15;8.30;;;7.60;;
12788;SDS011;6458;42.710;23.192;2023-05-19T05:41:41;8.23;;;7.57;;
12788;SDS011;6458;42.710;23.192;2023-05-19T05:44:08;8.10;;;7.33;;
12788;SDS011;6458;42.710;23.192;2023-05-19T05:46:34;8.57;;;7.87;;
12788;SDS011;6458;42.710;23.192;2023-05-19T05:49:03;8.40;;;7.70;;
12788;SDS011;6458;42.710;23.192;2023-05-19T05:51:30;8.50;;;7.50;;
12788;SDS011;6458;42.710;23.192;2023-05-19T05:53:58;8.57;;;7.80;;
12788;SDS011;6458;42.710;23.192;2023-05-19T05:56:25;7.63;;;6.93;;
12788;SDS011;6458;42.710;23.192;2023-05-19T05:58:52;7.67;;;7.07;;
12788;SDS011;6458;42.710;23.192;2023-05-19T06:01:25;7.37;;;6.87;;
12788;SDS011;6458;42.710;23.192;2023-05-19T06:03:55;7.70;;;7.00;;
12788;SDS011;6458;42.710;23.192;2023-05-19T06:06:23;7.60;;;7.00;;
12788;SDS011;6458;42.710;23.192;2023-05-19T06:08:50;8.07;;;7.33;;
12788;SDS011;6458;42.710;23.192;2023-05-19T06:11:16;7.37;;;6.77;;
12788;SDS011;6458;42.710;23.192;2023-05-19T06:13:43;7.70;;;6.33;;
12788;SDS011;6458;42.710;23.192;2023-05-19T06:16:10;7.00;;;6.50;;
12788;SDS011;6458;42.710;23.192;2023-05-19T06:18:37;6.93;;;6.43;;
12788;SDS011;6458;42.710;23.192;2023-05-19T06:21:04;6.97;;;6.47;;
12788;SDS011;6458;42.710;23.192;2023-05-19T06:23:32;6.63;;;6.07;;
12788;SDS011;6458;42.710;23.192;2023-05-19T06:25:59;9.30;;;7.10;;
12788;SDS011;6458;42.710;23.192;2023-05-19T06:28:25;6.97;;;6.37;;
12788;SDS011;6458;42.710;23.192;2023-05-19T06:30:52;7.20;;;6.57;;
12788;SDS011;6458;42.710;23.192;2023-05-19T06:33:19;7.63;;;7.03;;
12788;SDS011;6458;42.710;23.192;2023-05-19T06:35:45;8.63;;;7.03;;
12788;SDS011;6458;42.710;23.192;2023-05-19T06:38:12;7.40;;;6.70;;
12788;SDS011;6458;42.710;23.192;2023-05-19T06:40:40;8.03;;;7.37;;
12788;SDS011;6458;42.710;23.192;2023-05-19T06:43:07;6.63;;;6.03;;
12788;SDS011;6458;42.710;23.192;2023-05-19T06:45:34;7.33;;;6.60;;
12788;SDS011;6458;42.710;23.192;2023-05-19T06:48:00;6.33;;;5.83;;
12788;SDS011;6458;42.710;23.192;2023-05-19T06:50:36;7.00;;;6.47;;
12788;SDS011;6458;42.710;23.192;2023-05-19T06:53:05;7.47;;;6.60;;
12788;SDS011;6458;42.710;23.192;2023-05-19T06:55:32;6.77;;;6.27;;
12788;SDS011;6458;42.710;23.192;2023-05-19T06:58:00;6.80;;;6.23;;
12788;SDS011;6458;42.710;23.192;2023-05-19T07:00:27;6.83;;;6.13;;
12788;SDS011;6458;42.710;23.192;2023-05-19T07:02:54;6.40;;;5.97;;
12788;SDS011;6458;42.710;23.192;2023-05-19T07:05:20;6.80;;;6.03;;
12788;SDS011;6458;42.710;23.192;2023-05-19T07:07:47;6.77;;;6.27;;
12788;SDS011;6458;42.710;23.192;2023-05-19T07:10:14;6.73;;;6.13;;
12788;SDS011;6458;42.710;23.192;2023-05-19T07:12:40;7.07;;;6.37;;
12788;SDS011;6458;42.710;23.192;2023-05-19T07:15:09;6.67;;;6.13;;
12788;SDS011;6458;42.710;23.192;2023-05-19T07:17:36;6.57;;;6.07;;
12788;SDS011;6458;42.710;23.192;2023-05-19T07:20:02;6.80;;;6.20;;
12788;SDS011;6458;42.710;23.192;2023-05-19T07:22:30;7.20;;;6.60;;
12788;SDS011;6458;42.710;23.192;2023-05-19T07:24:59;6.10;;;5.73;;
12788;SDS011;6458;42.710;23.192;2023-05-19T07:27:25;6.90;;;6.30;;
12788;SDS011;6458;42.710;23.192;2023-05-19T07:29:52;6.80;;;6.30;;
12788;SDS011;6458;42.710;23.192;2023-05-19T07:32:20;6.17;;;5.70;;
12788;SDS011;6458;42.710;23.192;2023-05-19T07:34:47;6.40;;;5.90;;
12788;SDS011;6458;42.710;23.192;2023-05-19T07:37:14;6.43;;;6.00;;
12788;SDS011;6458;42.710;23.192;2023-05-19T07:39:41;5.83;;;5.50;;
12788;SDS011;6458;42.710;23.192;2023-05-19T07:42:07;6.60;;;6.00;;
12788;SDS011;6458;42.710;23.192;2023-05-19T07:44:34;6.10;;;5.67;;
12788;SDS011;6458;42.710;23.192;2023-05-19T07:47:01;6.00;;;5.53;;
12788;SDS011;6458;42.710;23.192;2023-05-19T07:49:29;6.90;;;6.33;;
12788;SDS011;6458;42.710;23.192;2023-05-19T07:51:56;7.17;;;6.50;;
12788;SDS011;6458;42.710;23.192;2023-05-19T07:54:22;7.03;;;6.37;;
12788;SDS011;6458;42.710;23.192;2023-05-19T07:56:49;6.63;;;6.03;;
12788;SDS011;6458;42.710;23.192;2023-05-19T07:59:16;6.63;;;6.10;;
12788;SDS011;6458;42.710;23.192;2023-05-19T08:01:42;6.37;;;5.87;;
12788;SDS011;6458;42.710;23.192;2023-05-19T08:04:09;7.70;;;6.83;;
12788;SDS011;6458;42.710;23.192;2023-05-19T08:06:37;6.50;;;6.00;;
12788;SDS011;6458;42.710;23.192;2023-05-19T08:09:06;7.20;;;6.50;;
12788;SDS011;6458;42.710;23.192;2023-05-19T08:11:33;6.83;;;6.33;;
12788;SDS011;6458;42.710;23.192;2023-05-19T08:14:00;7.40;;;6.70;;
12788;SDS011;6458;42.710;23.192;2023-05-19T08:16:27;7.27;;;6.77;;
12788;SDS011;6458;42.710;23.192;2023-05-19T08:18:54;7.00;;;6.50;;
12788;SDS011;6458;42.710;23.192;2023-05-19T08:21:20;7.27;;;6.77;;
12788;SDS011;6458;42.710;23.192;2023-05-19T08:23:48;7.87;;;7.07;;
12788;SDS011;6458;42.710;23.192;2023-05-19T08:26:16;7.67;;;7.13;;
12788;SDS011;6458;42.710;23.192;2023-05-19T08:28:42;9.13;;;8.30;;
12788;SDS011;6458;42.710;23.192;2023-05-19T08:31:09;8.10;;;7.40;;
12788;SDS011;6458;42.710;23.192;2023-05-19T08:33:36;8.70;;;7.50;;
12788;SDS011;6458;42.710;23.192;2023-05-19T08:36:03;9.13;;;8.07;;
12788;SDS011;6458;42.710;23.192;2023-05-19T08:38:30;10.83;;;8.40;;
12788;SDS011;6458;42.710;23.192;2023-05-19T08:40:58;8.53;;;7.73;;
12788;SDS011;6458;42.710;23.192;2023-05-19T08:43:25;9.27;;;8.37;;
12788;SDS011;6458;42.710;23.192;2023-05-19T08:45:52;8.53;;;7.83;;
12788;SDS011;6458;42.710;23.192;2023-05-19T08:48:19;9.07;;;8.37;;
12788;SDS011;6458;42.710;23.192;2023-05-19T08:50:50;8.80;;;7.90;;
12788;SDS011;6458;42.710;23.192;2023-05-19T08:53:18;8.80;;;7.93;;
12788;SDS011;6458;42.710;23.192;2023-05-19T08:55:49;9.33;;;8.43;;
12788;SDS011;6458;42.710;23.192;2023-05-19T08:58:18;10.97;;;8.90;;
12788;SDS011;6458;42.710;23.192;2023-05-19T09:00:46;10.03;;;9.13;;
12788;SDS011;6458;42.710;23.192;2023-05-19T09:03:15;9.23;;;8.53;;
12788;SDS011;6458;42.710;23.192;2023-05-19T09:05:43;8.93;;;8.23;;
12788;SDS011;6458;42.710;23.192;2023-05-19T09:08:10;9.50;;;8.60;;
12788;SDS011;6458;42.710;23.192;2023-05-19T09:10:37;10.53;;;9.20;;
12788;SDS011;6458;42.710;23.192;2023-05-19T09:13:03;10.30;;;9.20;;
12788;SDS011;6458;42.710;23.192;2023-05-19T09:15:32;9.23;;;8.27;;
12788;SDS011;6458;42.710;23.192;2023-05-19T09:18:07;9.80;;;8.90;;
12788;SDS011;6458;42.710;23.192;2023-05-19T09:20:37;10.27;;;9.20;;
12788;SDS011;6458;42.710;23.192;2023-05-19T09:23:04;9.37;;;8.60;;
12788;SDS011;6458;42.710;23.192;2023-05-19T09:25:32;9.30;;;8.40;;
12788;SDS011;6458;42.710;23.192;2023-05-19T09:27:58;10.87;;;9.77;;
12788;SDS011;6458;42.710;23.192;2023-05-19T09:30:25;10.03;;;9.00;;
12788;SDS011;6458;42.710;23.192;2023-05-19T09:32:53;8.90;;;8.00;;
12788;SDS011;6458;42.710;23.192;2023-05-19T09:35:20;10.23;;;8.87;;
12788;SDS011;6458;42.710;23.192;2023-05-19T09:37:46;11.33;;;9.23;;
12788;SDS011;6458;42.710;23.192;2023-05-19T09:40:13;10.30;;;9.30;;
12788;SDS011;6458;42.710;23.192;2023-05-19T09:42:40;11.53;;;10.43;;
12788;SDS011;6458;42.710;23.192;2023-05-19T09:45:08;11.17;;;10.00;;
12788;SDS011;6458;42.710;23.192;2023-05-19T09:47:35;10.10;;;9.10;;
12788;SDS011;6458;42.710;23.192;2023-05-19T09:50:05;12.77;;;9.80;;
12788;SDS011;6458;42.710;23.192;2023-05-19T09:52:34;11.57;;;9.50;;
12788;SDS011;6458;42.710;23.192;2023-05-19T09:55:01;13.80;;;9.87;;
12788;SDS011;6458;42.710;23.192;2023-05-19T09:57:32;16.57;;;9.87;;
12788;SDS011;6458;42.710;23.192;2023-05-19T09:59:59;11.17;;;10.17;;
12788;SDS011;6458;42.710;23.192;2023-05-19T10:02:30;10.40;;;9.40;;
12788;SDS011;6458;42.710;23.192;2023-05-19T10:04:58;11.20;;;9.97;;
12788;SDS011;6458;42.710;23.192;2023-05-19T10:07:27;10.27;;;9.37;;
12788;SDS011;6458;42.710;23.192;2023-05-19T10:09:54;11.13;;;10.00;;
12788;SDS011;6458;42.710;23.192;2023-05-19T10:12:21;9.93;;;9.03;;
12788;SDS011;6458;42.710;23.192;2023-05-19T10:14:48;9.93;;;9.00;;
12788;SDS011;6458;42.710;23.192;2023-05-19T10:17:17;11.10;;;9.77;;
12788;SDS011;6458;42.710;23.192;2023-05-19T10:19:44;12.43;;;9.33;;
12788;SDS011;6458;42.710;23.192;2023-05-19T10:22:10;12.53;;;9.87;;
12788;SDS011;6458;42.710;23.192;2023-05-19T10:24:39;13.73;;;9.40;;
12788;SDS011;6458;42.710;23.192;2023-05-19T10:27:06;10.23;;;9.23;;
12788;SDS011;6458;42.710;23.192;2023-05-19T10:29:35;13.17;;;9.87;;
12788;SDS011;6458;42.710;23.192;2023-05-19T10:32:03;9.30;;;8.50;;
12788;SDS011;6458;42.710;23.192;2023-05-19T10:34:35;12.33;;;9.80;;
12788;SDS011;6458;42.710;23.192;2023-05-19T10:37:11;10.50;;;9.20;;
12788;SDS011;6458;42.710;23.192;2023-05-19T10:39:43;10.40;;;9.27;;
12788;SDS011;6458;42.710;23.192;2023-05-19T10:42:12;11.00;;;9.20;;
12788;SDS011;6458;42.710;23.192;2023-05-19T10:44:45;10.13;;;9.07;;
12788;SDS011;6458;42.710;23.192;2023-05-19T10:47:12;10.17;;;9.03;;
12788;SDS011;6458;42.710;23.192;2023-05-19T10:49:38;12.83;;;9.93;;
12788;SDS011;6458;42.710;23.192;2023-05-19T10:52:17;9.97;;;8.90;;
12788;SDS011;6458;42.710;23.192;2023-05-19T10:54:47;11.37;;;9.40;;
12788;SDS011;6458;42.710;23.192;2023-05-19T10:57:13;10.37;;;9.37;;
12788;SDS011;6458;42.710;23.192;2023-05-19T10:59:41;11.90;;;10.00;;
12788;SDS011;6458;42.710;23.192;2023-05-19T11:02:08;9.80;;;8.80;;
12788;SDS011;6458;42.710;23.192;2023-05-19T11:04:38;10.30;;;9.07;;
12788;SDS011;6458;42.710;23.192;2023-05-19T11:07:07;10.87;;;9.67;;
12788;SDS011;6458;42.710;23.192;2023-05-19T11:09:37;10.17;;;9.23;;
12788;SDS011;6458;42.710;23.192;2023-05-19T11:12:07;10.27;;;9.37;;
12788;SDS011;6458;42.710;23.192;2023-05-19T11:14:35;10.97;;;9.37;;
12788;SDS011;6458;42.710;23.192;2023-05-19T11:17:03;11.00;;;9.80;;
12788;SDS011;6458;42.710;23.192;2023-05-19T11:19:31;10.53;;;9.40;;
12788;SDS011;6458;42.710;23.192;2023-05-19T11:22:06;12.77;;;9.80;;
12788;SDS011;6458;42.710;23.192;2023-05-19T11:24:34;11.03;;;9.87;;
12788;SDS011;6458;42.710;23.192;2023-05-19T11:29:44;9.97;;;9.07;;
12788;SDS011;6458;42.710;23.192;2023-05-19T11:32:10;10.53;;;9.30;;
12788;SDS011;6458;42.710;23.192;2023-05-19T11:34:38;11.00;;;9.10;;
12788;SDS011;6458;42.710;23.192;2023-05-19T11:37:05;12.17;;;8.90;;
12788;SDS011;6458;42.710;23.192;2023-05-19T11:39:32;10.90;;;9.70;;
12788;SDS011;6458;42.710;23.192;2023-05-19T11:41:59;12.63;;;10.07;;
12788;SDS011;6458;42.710;23.192;2023-05-19T11:44:26;11.23;;;9.83;;
12788;SDS011;6458;42.710;23.192;2023-05-19T11:46:54;9.93;;;9.00;;
12788;SDS011;6458;42.710;23.192;2023-05-19T11:49:22;9.57;;;8.73;;
12788;SDS011;6458;42.710;23.192;2023-05-19T11:51:49;9.63;;;8.83;;
12788;SDS011;6458;42.710;23.192;2023-05-19T11:54:19;9.57;;;8.60;;
12788;SDS011;6458;42.710;23.192;2023-05-19T11:56:45;11.23;;;8.97;;
12788;SDS011;6458;42.710;23.192;2023-05-19T11:59:12;9.37;;;8.50;;
12788;SDS011;6458;42.710;23.192;2023-05-19T12:01:39;8.87;;;8.00;;
12788;SDS011;6458;42.710;23.192;2023-05-19T12:04:08;9.10;;;8.20;;
12788;SDS011;6458;42.710;23.192;2023-05-19T12:06:35;8.70;;;7.37;;
12788;SDS011;6458;42.710;23.192;2023-05-19T12:09:03;8.70;;;7.80;;
12788;SDS011;6458;42.710;23.192;2023-05-19T12:11:30;9.33;;;8.43;;
12788;SDS011;6458;42.710;23.192;2023-05-19T12:13:58;9.43;;;8.30;;
12788;SDS011;6458;42.710;23.192;2023-05-19T12:16:31;9.53;;;8.53;;
12788;SDS011;6458;42.710;23.192;2023-05-19T12:18:58;8.87;;;8.07;;
12788;SDS011;6458;42.710;23.192;2023-05-19T12:21:26;9.53;;;8.63;;
12788;SDS011;6458;42.710;23.192;2023-05-19T12:23:53;10.07;;;8.87;;
12788;SDS011;6458;42.710;23.192;2023-05-19T12:26:20;8.60;;;7.70;;
12788;SDS011;6458;42.710;23.192;2023-05-19T12:28:46;10.87;;;8.70;;
12788;SDS011;6458;42.710;23.192;2023-05-19T12:31:13;10.60;;;8.47;;
12788;SDS011;6458;42.710;23.192;2023-05-19T12:33:40;10.13;;;7.43;;
12788;SDS011;6458;42.710;23.192;2023-05-19T12:36:07;8.33;;;7.57;;
12788;SDS011;6458;42.710;23.192;2023-05-19T12:38:35;8.00;;;7.30;;
12788;SDS011;6458;42.710;23.192;2023-05-19T12:41:03;7.10;;;6.50;;
12788;SDS011;6458;42.710;23.192;2023-05-19T12:43:31;8.13;;;6.87;;
12788;SDS011;6458;42.710;23.192;2023-05-19T12:45:57;7.73;;;6.97;;
12788;SDS011;6458;42.710;23.192;2023-05-19T12:48:24;7.33;;;6.50;;
12788;SDS011;6458;42.710;23.192;2023-05-19T12:50:51;8.47;;;7.20;;
12788;SDS011;6458;42.710;23.192;2023-05-19T12:53:19;8.00;;;7.20;;
12788;SDS011;6458;42.710;23.192;2023-05-19T12:55:50;8.00;;;7.20;;
12788;SDS011;6458;42.710;23.192;2023-05-19T12:58:18;8.10;;;7.30;;
12788;SDS011;6458;42.710;23.192;2023-05-19T13:00:45;8.00;;;7.17;;
12788;SDS011;6458;42.710;23.192;2023-05-19T13:03:16;8.13;;;7.33;;
12788;SDS011;6458;42.710;23.192;2023-05-19T13:05:44;6.97;;;6.37;;
12788;SDS011;6458;42.710;23.192;2023-05-19T13:08:12;7.83;;;6.60;;
12788;SDS011;6458;42.710;23.192;2023-05-19T13:10:39;7.43;;;6.80;;
12788;SDS011;6458;42.710;23.192;2023-05-19T13:13:08;7.27;;;6.67;;
12788;SDS011;6458;42.710;23.192;2023-05-19T13:15:36;9.73;;;6.77;;
12788;SDS011;6458;42.710;23.192;2023-05-19T13:18:04;8.17;;;7.00;;
12788;SDS011;6458;42.710;23.192;2023-05-19T13:20:31;8.43;;;6.83;;
12788;SDS011;6458;42.710;23.192;2023-05-19T13:22:58;6.97;;;6.37;;
12788;SDS011;6458;42.710;23.192;2023-05-19T13:25:25;7.20;;;6.60;;
12788;SDS011;6458;42.710;23.192;2023-05-19T13:27:52;6.27;;;5.77;;
12788;SDS011;6458;42.710;23.192;2023-05-19T13:30:20;6.53;;;5.90;;
12788;SDS011;6458;42.710;23.192;2023-05-19T13:32:47;7.13;;;6.43;;
12788;SDS011;6458;42.710;23.192;2023-05-19T13:35:16;6.97;;;6.47;;
12788;SDS011;6458;42.710;23.192;2023-05-19T13:37:43;6.30;;;5.70;;
12788;SDS011;6458;42.710;23.192;2023-05-19T13:40:10;6.60;;;6.00;;
12788;SDS011;6458;42.710;23.192;2023-05-19T13:42:37;7.03;;;6.43;;
12788;SDS011;6458;42.710;23.192;2023-05-19T13:45:04;6.43;;;5.83;;
12788;SDS011;6458;42.710;23.192;2023-05-19T13:47:32;6.90;;;6.30;;
12788;SDS011;6458;42.710;23.192;2023-05-19T13:50:00;6.47;;;5.97;;
12788;SDS011;6458;42.710;23.192;2023-05-19T13:52:27;7.07;;;6.37;;
12788;SDS011;6458;42.710;23.192;2023-05-19T13:54:54;6.53;;;5.93;;
12788;SDS011;6458;42.710;23.192;2023-05-19T13:57:20;7.13;;;6.53;;
12788;SDS011;6458;42.710;23.192;2023-05-19T13:59:47;7.20;;;6.60;;
12788;SDS011;6458;42.710;23.192;2023-05-19T14:02:14;6.67;;;6.07;;
12788;SDS011;6458;42.710;23.192;2023-05-19T14:04:42;6.73;;;6.13;;
12788;SDS011;6458;42.710;23.192;2023-05-19T14:07:09;7.27;;;6.67;;
12788;SDS011;6458;42.710;23.192;2023-05-19T14:09:35;7.17;;;6.57;;
12788;SDS011;6458;42.710;23.192;2023-05-19T14:12:02;8.27;;;6.77;;
12788;SDS011;6458;42.710;23.192;2023-05-19T14:14:30;7.70;;;7.07;;
12788;SDS011;6458;42.710;23.192;2023-05-19T14:16:56;8.07;;;7.27;;
12788;SDS011;6458;42.710;23.192;2023-05-19T14:19:23;7.57;;;6.97;;
12788;SDS011;6458;42.710;23.192;2023-05-19T14:21:55;7.70;;;6.90;;
12788;SDS011;6458;42.710;23.192;2023-05-19T14:24:22;8.03;;;7.33;;
12788;SDS011;6458;42.710;23.192;2023-05-19T14:26:49;7.70;;;6.93;;
12788;SDS011;6458;42.710;23.192;2023-05-19T14:29:16;7.60;;;6.87;;
12788;SDS011;6458;42.710;23.192;2023-05-19T14:31:43;8.00;;;7.30;;
12788;SDS011;6458;42.710;23.192;2023-05-19T14:34:10;8.20;;;7.50;;
12788;SDS011;6458;42.710;23.192;2023-05-19T14:36:36;8.20;;;7.50;;
12788;SDS011;6458;42.710;23.192;2023-05-19T14:39:04;8.83;;;7.93;;
12788;SDS011;6458;42.710;23.192;2023-05-19T14:41:32;8.50;;;7.70;;
12788;SDS011;6458;42.710;23.192;2023-05-19T14:43:58;8.57;;;7.77;;
12788;SDS011;6458;42.710;23.192;2023-05-19T14:46:25;9.20;;;8.17;;
12788;SDS011;6458;42.710;23.192;2023-05-19T14:48:52;8.23;;;7.53;;
12788;SDS011;6458;42.710;23.192;2023-05-19T14:51:19;9.03;;;8.13;;
12788;SDS011;6458;42.710;23.192;2023-05-19T14:53:46;8.70;;;7.83;;